Time;durP1;ratioP1;P1;durP2;ratioP2;P2;SDS_P1;SDS_P2;PMS_P1;PMS_P2;Temp;Humidity;BMP_temperature;BMP_pressure;BME280_temperature;BME280_humidity;BME280_pressure;Samples;Min_cycle;Max_cycle;Signal;HPM_P1;HPM_P2
2023/01/21 00:00:58;;;;;;;74.50;33.28;;;-6.80;99.90;;;;;;5052487;28;20327;-69
2023/01/21 00:03:25;;;;;;;63.72;33.97;;;-6.80;99.90;;;;;;5057736;28;20127;-69
2023/01/21 00:05:52;;;;;;;70.38;32.92;;;-6.80;99.90;;;;;;5048054;28;20037;-69
2023/01/21 00:08:18;;;;;;;62.58;29.20;;;-6.90;99.90;;;;;;5057852;28;20036;-69
2023/01/21 00:10:45;;;;;;;68.00;31.50;;;-6.90;99.90;;;;;;5035955;28;20041;-70
2023/01/21 00:13:12;;;;;;;64.10;30.20;;;-6.90;99.90;;;;;;5022103;28;20053;-69
2023/01/21 00:15:39;;;;;;;65.05;31.75;;;-6.90;99.90;;;;;;5050873;28;20499;-69
2023/01/21 00:18:06;;;;;;;67.75;31.75;;;-7.00;99.90;;;;;;5033316;28;20151;-69
2023/01/21 00:20:33;;;;;;;66.45;31.70;;;-7.00;99.90;;;;;;5053476;28;20049;-69
2023/01/21 00:22:59;;;;;;;63.22;30.27;;;-6.90;99.90;;;;;;5049848;28;20040;-69
2023/01/21 00:25:27;;;;;;;60.10;29.35;;;-6.90;99.90;;;;;;5033587;28;20131;-69
2023/01/21 00:27:53;;;;;;;66.50;30.67;;;-6.90;99.90;;;;;;5046940;28;20033;-69
2023/01/21 00:30:21;;;;;;;58.97;28.67;;;-6.90;99.90;;;;;;5024158;28;20402;-69
2023/01/21 00:32:47;;;;;;;61.58;29.88;;;-6.80;99.90;;;;;;5054390;28;20164;-69
2023/01/21 00:35:15;;;;;;;56.58;27.63;;;-6.80;99.90;;;;;;5043567;28;20052;-69
2023/01/21 00:37:41;;;;;;;67.57;28.27;;;-6.80;99.90;;;;;;5053620;28;20544;-70
2023/01/21 00:40:09;;;;;;;57.58;28.17;;;-6.90;99.90;;;;;;5053110;28;20041;-69
2023/01/21 00:42:35;;;;;;;61.88;28.02;;;-6.90;99.90;;;;;;5055156;28;20584;-69
2023/01/21 00:45:03;;;;;;;62.78;29.02;;;-6.80;99.90;;;;;;5048722;28;20071;-69
2023/01/21 00:47:29;;;;;;;62.78;27.70;;;-6.80;99.90;;;;;;5052023;28;20224;-69
2023/01/21 00:49:56;;;;;;;63.47;28.23;;;-6.80;99.90;;;;;;5035589;28;20032;-69
2023/01/21 00:52:22;;;;;;;77.60;31.25;;;-6.80;99.90;;;;;;5054513;28;20041;-69
2023/01/21 00:54:49;;;;;;;63.28;28.98;;;-6.80;99.90;;;;;;5051472;28;20132;-69
2023/01/21 00:57:16;;;;;;;63.45;29.73;;;-6.80;99.90;;;;;;5034050;28;20043;-69
2023/01/21 00:59:42;;;;;;;66.40;28.48;;;-6.80;99.90;;;;;;5032741;28;20056;-70
2023/01/21 01:02:09;;;;;;;59.13;28.02;;;-6.90;99.90;;;;;;5052164;28;20040;-69
2023/01/21 01:04:36;;;;;;;58.63;28.40;;;-6.90;99.90;;;;;;5055414;28;20135;-69
2023/01/21 01:07:03;;;;;;;60.15;28.58;;;-6.90;99.90;;;;;;5014014;28;20328;-69
2023/01/21 01:09:30;;;;;;;58.17;29.15;;;-7.00;99.90;;;;;;5056222;28;20524;-69
2023/01/21 01:11:56;;;;;;;66.70;30.33;;;-7.00;99.90;;;;;;5052141;28;21125;-69
2023/01/21 01:14:23;;;;;;;67.38;30.92;;;-7.00;99.90;;;;;;5052268;28;20067;-69
2023/01/21 01:16:50;;;;;;;64.85;30.60;;;-7.10;99.90;;;;;;5029938;28;20044;-69
2023/01/21 01:19:17;;;;;;;59.05;29.35;;;-7.10;99.90;;;;;;5061956;28;20115;-70
2023/01/21 01:21:43;;;;;;;58.58;29.58;;;-7.00;99.90;;;;;;5053231;28;20033;-69
2023/01/21 01:24:10;;;;;;;58.85;30.10;;;-7.10;99.90;;;;;;5057846;28;20052;-69
2023/01/21 01:26:37;;;;;;;61.15;28.80;;;-7.20;99.90;;;;;;5052142;28;20044;-69
2023/01/21 01:29:10;;;;;;;65.28;31.15;;;-7.20;99.90;;;;;;5055179;28;20167;-69
2023/01/21 01:31:37;;;;;;;60.97;29.23;;;-7.00;99.90;;;;;;5052338;28;20079;-70
2023/01/21 01:34:04;;;;;;;61.05;29.90;;;-6.90;99.90;;;;;;5036741;28;20040;-69
2023/01/21 01:36:30;;;;;;;61.22;29.45;;;-6.80;99.90;;;;;;5053777;28;20327;-70
2023/01/21 01:38:57;;;;;;;74.90;31.45;;;-6.60;99.90;;;;;;5050901;28;20052;-69
2023/01/21 01:41:27;;;;;;;70.70;30.70;;;-6.60;99.90;;;;;;5035248;28;20411;-69
2023/01/21 01:44:00;;;;;;;61.00;28.73;;;-6.70;99.90;;;;;;5054519;28;20453;-69
2023/01/21 01:46:33;;;;;;;67.35;29.80;;;-6.90;99.90;;;;;;5038774;28;20042;-69
2023/01/21 01:49:07;;;;;;;74.65;29.67;;;-6.90;99.90;;;;;;5054794;28;20044;-69
2023/01/21 01:51:50;;;;;;;68.85;30.20;;;-6.90;99.90;;;;;;5056814;28;20215;-69
2023/01/21 01:54:23;;;;;;;74.97;31.92;;;-6.80;99.90;;;;;;5055322;28;20343;-69
2023/01/21 01:56:56;;;;;;;72.18;28.95;;;-6.80;99.90;;;;;;5053935;28;20438;-69
2023/01/21 01:59:23;;;;;;;72.55;31.02;;;-7.00;99.90;;;;;;5053457;28;20080;-69
2023/01/21 02:01:50;;;;;;;68.10;30.65;;;-6.80;99.90;;;;;;5055804;28;20061;-69
2023/01/21 02:04:24;;;;;;;73.57;31.42;;;-6.90;99.90;;;;;;5028594;28;20053;-70
2023/01/21 02:06:53;;;;;;;74.57;33.38;;;-7.00;99.90;;;;;;5032792;28;20063;-69
2023/01/21 02:09:20;;;;;;;75.15;34.28;;;-7.00;99.90;;;;;;5060393;28;20039;-69
2023/01/21 02:11:47;;;;;;;62.97;30.08;;;-7.10;99.90;;;;;;5054183;28;20047;-69
2023/01/21 02:14:14;;;;;;;69.53;30.50;;;-7.10;99.90;;;;;;5053714;28;20208;-69
2023/01/21 02:17:02;;;;;;;76.32;32.45;;;-7.00;99.90;;;;;;5059286;28;20128;-69
2023/01/21 02:20:05;;;;;;;68.97;31.10;;;-6.80;99.90;;;;;;5033412;28;20049;-69
2023/01/21 02:23:05;;;;;;;79.13;32.03;;;-6.90;99.90;;;;;;5055463;28;20041;-69
2023/01/21 02:25:53;;;;;;;66.00;31.17;;;-7.00;99.90;;;;;;5057387;28;20230;-69
2023/01/21 02:28:28;;;;;;;65.03;28.27;;;-7.10;99.90;;;;;;5052221;28;20534;-69
2023/01/21 02:31:14;;;;;;;63.30;28.35;;;-7.20;99.90;;;;;;5035492;28;20549;-69
2023/01/21 02:34:05;;;;;;;65.47;29.98;;;-7.30;99.90;;;;;;5051704;28;20580;-69
2023/01/21 02:36:37;;;;;;;64.45;28.83;;;-7.50;99.90;;;;;;5049307;28;20041;-69
2023/01/21 02:39:25;;;;;;;67.30;29.95;;;-7.60;99.90;;;;;;5052841;28;20303;-69
2023/01/21 02:42:04;;;;;;;70.35;30.90;;;-7.60;99.90;;;;;;5049186;28;20048;-69
2023/01/21 02:44:41;;;;;;;67.60;31.35;;;-7.60;99.90;;;;;;5056966;28;20056;-69
2023/01/21 02:47:27;;;;;;;58.47;28.67;;;-7.50;99.90;;;;;;5034325;28;20557;-69
2023/01/21 02:50:02;;;;;;;58.15;29.08;;;-7.40;99.90;;;;;;5052653;28;20033;-69
2023/01/21 02:52:29;;;;;;;62.20;28.15;;;-7.50;99.90;;;;;;5053891;28;20348;-69
2023/01/21 02:54:58;;;;;;;69.25;29.92;;;-7.60;99.90;;;;;;5053403;28;20390;-69
2023/01/21 02:57:36;;;;;;;71.97;31.98;;;-7.60;99.90;;;;;;5057516;28;20051;-69
2023/01/21 03:00:35;;;;;;;61.60;30.20;;;-7.60;99.90;;;;;;5051232;28;20321;-69
2023/01/21 03:03:10;;;;;;;69.30;30.38;;;-7.60;99.90;;;;;;5046105;28;20479;-69
2023/01/21 03:05:48;;;;;;;65.18;32.58;;;-7.70;99.90;;;;;;5050398;28;20300;-69
2023/01/21 03:08:19;;;;;;;71.55;31.73;;;-7.70;99.90;;;;;;5033351;28;20051;-69
2023/01/21 03:11:07;;;;;;;65.95;29.40;;;-7.60;99.90;;;;;;5030655;28;20041;-69
2023/01/21 03:19:19;;;;;;;61.72;29.80;;;-7.70;99.90;;;;;;5057183;28;20525;-70
2023/01/21 03:21:47;;;;;;;62.70;29.30;;;-7.80;99.90;;;;;;5053906;28;20051;-69
2023/01/21 03:24:15;;;;;;;64.25;30.23;;;-7.90;99.90;;;;;;5051358;28;20045;-69
2023/01/21 03:26:47;;;;;;;64.63;30.50;;;-7.90;99.90;;;;;;5049458;28;20041;-69
2023/01/21 03:29:17;;;;;;;70.75;30.40;;;-7.80;99.90;;;;;;5022872;28;20574;-69
2023/01/21 03:31:48;;;;;;;61.80;32.20;;;-7.80;99.90;;;;;;5053745;28;20043;-69
2023/01/21 03:34:17;;;;;;;56.85;29.48;;;-7.80;99.90;;;;;;5054948;28;20851;-69
2023/01/21 03:36:53;;;;;;;53.85;28.40;;;-7.90;99.90;;;;;;5051019;28;20180;-69
2023/01/21 03:39:28;;;;;;;67.35;31.67;;;-7.90;99.90;;;;;;6094014;23;20596;-69
2023/01/21 03:41:55;;;;;;;70.00;31.95;;;-7.90;99.90;;;;;;6098535;23;20410;-69
2023/01/21 03:44:22;;;;;;;53.83;30.42;;;-7.60;99.90;;;;;;6070122;23;20943;-69
2023/01/21 03:47:00;;;;;;;63.65;31.42;;;-7.70;99.90;;;;;;6116723;23;20046;-69
2023/01/21 03:49:57;;;;;;;57.20;29.15;;;-7.60;99.90;;;;;;6060363;23;20024;-70
2023/01/21 03:52:25;;;;;;;68.00;31.17;;;-7.40;99.90;;;;;;6069705;23;20196;-69
2023/01/21 03:54:53;;;;;;;75.78;32.08;;;-7.30;99.90;;;;;;6038406;23;20032;-69
2023/01/21 03:57:20;;;;;;;72.15;33.65;;;-7.20;99.90;;;;;;6060038;23;20028;-71
2023/01/21 03:59:46;;;;;;;69.18;30.27;;;-7.00;99.90;;;;;;6089154;23;20027;-71
2023/01/21 04:02:18;;;;;;;72.60;31.58;;;-6.90;99.90;;;;;;6071668;23;20302;-71
2023/01/21 04:04:46;;;;;;;96.30;36.80;;;-6.70;99.90;;;;;;6089593;23;20036;-71
2023/01/21 04:07:15;;;;;;;104.75;36.47;;;-6.40;99.90;;;;;;6070631;23;20732;-71
2023/01/21 04:09:42;;;;;;;89.47;33.63;;;-6.20;99.90;;;;;;6064990;23;20134;-70
2023/01/21 04:12:08;;;;;;;92.25;35.30;;;-6.10;99.90;;;;;;6067240;23;20032;-70
2023/01/21 04:14:35;;;;;;;80.50;31.45;;;-5.90;99.90;;;;;;6082594;23;20112;-70
2023/01/21 04:17:03;;;;;;;64.63;28.58;;;-5.80;99.90;;;;;;6052150;23;20028;-71
2023/01/21 04:19:29;;;;;;;71.95;31.83;;;-5.80;99.90;;;;;;6070826;23;20131;-70
2023/01/21 04:21:56;;;;;;;75.60;31.67;;;-5.90;99.90;;;;;;6045086;23;20048;-71
2023/01/21 04:24:23;;;;;;;70.72;30.50;;;-5.80;99.90;;;;;;6070777;23;20036;-71
2023/01/21 04:26:50;;;;;;;78.05;30.50;;;-5.70;99.90;;;;;;6070128;23;20644;-70
2023/01/21 04:29:17;;;;;;;75.50;30.58;;;-5.70;99.90;;;;;;6070199;23;20031;-70
2023/01/21 04:31:43;;;;;;;73.45;29.60;;;-5.50;99.90;;;;;;6069162;23;20036;-70
2023/01/21 04:34:10;;;;;;;69.50;30.20;;;-5.30;99.90;;;;;;6070222;23;20118;-69
2023/01/21 04:36:37;;;;;;;86.57;33.75;;;-5.30;99.90;;;;;;6067671;23;20693;-70
2023/01/21 04:39:04;;;;;;;103.50;36.05;;;-5.30;99.90;;;;;;6064402;23;20331;-70
2023/01/21 04:41:30;;;;;;;102.18;39.30;;;-5.10;99.90;;;;;;6045280;23;20139;-70
2023/01/21 04:43:57;;;;;;;110.95;39.67;;;-5.00;99.90;;;;;;6094194;23;20039;-70
2023/01/21 04:46:24;;;;;;;112.32;40.40;;;-4.80;99.90;;;;;;6068812;23;20051;-69
2023/01/21 04:48:51;;;;;;;111.10;43.75;;;-4.60;99.90;;;;;;6054632;23;20111;-70
2023/01/21 04:51:17;;;;;;;100.13;39.30;;;-4.40;99.90;;;;;;6055648;23;20029;-70
2023/01/21 04:53:44;;;;;;;100.93;40.00;;;-4.30;99.90;;;;;;6067404;23;20494;-70
2023/01/21 04:56:11;;;;;;;99.20;35.42;;;-4.30;99.90;;;;;;6068801;23;20443;-70
2023/01/21 04:58:37;;;;;;;87.80;35.38;;;-4.00;99.90;;;;;;6064061;23;20212;-70
2023/01/21 05:01:04;;;;;;;88.40;35.30;;;-3.80;99.90;;;;;;6092821;23;20121;-70
2023/01/21 05:03:31;;;;;;;98.45;36.22;;;-3.50;99.90;;;;;;6071375;23;20036;-71
2023/01/21 05:05:58;;;;;;;100.13;37.35;;;-3.40;99.90;;;;;;6049461;23;20984;-71
2023/01/21 05:08:24;;;;;;;87.63;34.75;;;-3.20;99.90;;;;;;6065152;23;20474;-69
2023/01/21 05:10:51;;;;;;;97.03;40.92;;;-2.90;99.90;;;;;;6089772;23;20466;-69
2023/01/21 05:13:18;;;;;;;101.82;38.40;;;-2.70;99.90;;;;;;6046455;23;20056;-69
2023/01/21 05:15:44;;;;;;;90.57;37.13;;;-2.50;99.90;;;;;;6057854;23;20034;-69
2023/01/21 05:18:11;;;;;;;79.82;31.45;;;-2.20;99.90;;;;;;6071022;23;20036;-69
2023/01/21 05:20:38;;;;;;;80.85;33.03;;;-1.90;99.90;;;;;;6050381;23;20059;-69
2023/01/21 05:23:04;;;;;;;65.03;27.65;;;-1.70;99.90;;;;;;6068741;23;20227;-69
2023/01/21 05:25:31;;;;;;;63.42;27.77;;;-1.60;99.90;;;;;;6081875;23;20384;-69
2023/01/21 05:27:57;;;;;;;66.72;28.83;;;-1.50;99.90;;;;;;6068256;23;20451;-69
2023/01/21 05:30:24;;;;;;;67.05;31.00;;;-1.50;99.90;;;;;;6067307;23;20032;-69
2023/01/21 05:32:52;;;;;;;62.30;29.05;;;-1.50;99.90;;;;;;6072360;23;20545;-69
2023/01/21 05:35:21;;;;;;;71.53;31.30;;;-1.50;99.90;;;;;;6067342;23;20043;-69
2023/01/21 05:37:47;;;;;;;69.15;30.27;;;-1.40;99.90;;;;;;6065129;23;20356;-69
2023/01/21 05:40:15;;;;;;;70.68;28.77;;;-1.30;99.90;;;;;;6069569;23;20046;-69
2023/01/21 05:42:42;;;;;;;82.32;33.30;;;-1.40;99.90;;;;;;6073180;23;20036;-69
2023/01/21 05:45:10;;;;;;;76.13;33.35;;;-1.50;99.90;;;;;;6071143;23;20054;-69
2023/01/21 05:47:37;;;;;;;71.88;33.92;;;-1.40;99.90;;;;;;6070912;23;20086;-69
2023/01/21 05:50:05;;;;;;;71.60;32.67;;;-1.50;99.90;;;;;;6083195;23;20308;-70
2023/01/21 05:52:32;;;;;;;69.40;28.70;;;-1.40;99.90;;;;;;6058825;23;20048;-69
2023/01/21 05:54:58;;;;;;;72.28;30.50;;;-1.50;99.90;;;;;;6065679;23;20538;-69
2023/01/21 05:57:29;;;;;;;77.15;33.55;;;-1.50;99.90;;;;;;6070626;23;20032;-69
2023/01/21 05:59:56;;;;;;;74.43;33.55;;;-1.60;99.90;;;;;;6070476;23;20035;-69
2023/01/21 06:02:23;;;;;;;65.25;32.08;;;-1.50;99.90;;;;;;6046175;23;20059;-69
2023/01/21 06:04:50;;;;;;;80.47;34.42;;;-1.60;99.90;;;;;;6052495;23;20067;-69
2023/01/21 06:07:16;;;;;;;79.13;33.67;;;-1.70;99.90;;;;;;6067578;23;20036;-69
2023/01/21 06:09:43;;;;;;;80.00;33.03;;;-1.70;99.90;;;;;;6067011;23;20040;-69
2023/01/21 06:12:10;;;;;;;84.40;37.38;;;-1.80;99.90;;;;;;6082583;23;20036;-69
2023/01/21 06:14:36;;;;;;;77.80;35.85;;;-1.70;99.90;;;;;;6061384;23;20238;-69
2023/01/21 06:17:03;;;;;;;81.88;35.85;;;-1.70;99.90;;;;;;6061142;23;20475;-69
2023/01/21 06:19:30;;;;;;;82.88;37.28;;;-1.60;99.90;;;;;;6071724;23;20377;-69
2023/01/21 06:21:57;;;;;;;74.93;34.42;;;-1.60;99.90;;;;;;6081434;23;20135;-70
2023/01/21 06:24:24;;;;;;;76.82;33.25;;;-1.60;99.90;;;;;;6067885;23;20062;-69
2023/01/21 06:26:52;;;;;;;74.43;31.42;;;-1.60;99.90;;;;;;6052954;23;20111;-69
2023/01/21 06:29:18;;;;;;;76.28;36.80;;;-1.60;99.90;;;;;;6074699;23;20036;-70
2023/01/21 06:31:45;;;;;;;79.90;35.58;;;-1.60;99.90;;;;;;6043035;23;20024;-69
2023/01/21 06:34:12;;;;;;;77.22;35.63;;;-1.60;99.90;;;;;;6066337;23;20056;-69
2023/01/21 06:36:41;;;;;;;77.35;35.42;;;-1.60;99.90;;;;;;6059468;23;20024;-69
2023/01/21 06:39:09;;;;;;;84.40;36.83;;;-1.70;99.90;;;;;;6079129;23;20028;-70
2023/01/21 06:41:36;;;;;;;83.03;35.47;;;-1.60;99.90;;;;;;6064800;23;20111;-69
2023/01/21 06:44:04;;;;;;;85.93;36.92;;;-1.60;99.90;;;;;;6058649;23;20131;-69
2023/01/21 06:46:30;;;;;;;74.55;36.00;;;-1.70;99.90;;;;;;6067446;23;20245;-69
2023/01/21 06:48:57;;;;;;;75.50;35.42;;;-1.70;99.90;;;;;;6074062;23;21418;-69
2023/01/21 06:51:24;;;;;;;74.35;35.60;;;-1.70;99.90;;;;;;6070329;23;20154;-69
2023/01/21 06:53:51;;;;;;;76.95;37.13;;;-1.60;99.90;;;;;;6067694;23;20399;-70
2023/01/21 06:56:18;;;;;;;78.25;36.00;;;-1.60;99.90;;;;;;6058518;23;20032;-69
2023/01/21 06:58:45;;;;;;;70.57;31.45;;;-1.60;99.90;;;;;;6073912;23;20215;-70
2023/01/21 07:01:12;;;;;;;61.25;27.15;;;-1.50;99.90;;;;;;6068288;23;20111;-69
2023/01/21 07:03:39;;;;;;;69.75;32.45;;;-1.60;99.90;;;;;;6071914;23;20036;-69
2023/01/21 07:06:06;;;;;;;66.03;31.50;;;-1.60;99.90;;;;;;6065928;23;20115;-69
2023/01/21 07:08:32;;;;;;;75.10;33.63;;;-1.50;99.90;;;;;;6054097;23;20131;-69
2023/01/21 07:10:59;;;;;;;64.93;33.20;;;-1.50;99.90;;;;;;6069717;23;20047;-69
2023/01/21 07:13:26;;;;;;;70.88;33.95;;;-1.40;99.90;;;;;;6062196;23;20127;-69
2023/01/21 07:15:58;;;;;;;80.88;35.83;;;-1.40;99.90;;;;;;6071169;23;20285;-69
2023/01/21 07:18:25;;;;;;;82.30;35.88;;;-1.30;99.90;;;;;;6073973;23;20388;-69
2023/01/21 07:20:51;;;;;;;84.45;37.55;;;-1.30;99.90;;;;;;6070095;23;20592;-69
2023/01/21 07:23:18;;;;;;;77.43;36.47;;;-1.20;99.90;;;;;;6060329;23;20327;-69
2023/01/21 07:25:45;;;;;;;74.00;34.17;;;-1.20;99.90;;;;;;6061546;23;20032;-69
2023/01/21 07:28:11;;;;;;;81.03;38.17;;;-1.20;99.90;;;;;;6068448;23;20235;-69
2023/01/21 07:30:38;;;;;;;69.10;35.70;;;-1.20;99.90;;;;;;6038397;23;20119;-69
2023/01/21 07:33:06;;;;;;;80.88;36.78;;;-1.30;99.90;;;;;;6067018;23;20059;-70
2023/01/21 07:35:33;;;;;;;79.63;38.08;;;-1.30;99.90;;;;;;6066100;23;20024;-70
2023/01/21 07:38:01;;;;;;;61.65;29.27;;;-1.30;99.90;;;;;;6063630;23;20032;-70
2023/01/21 07:40:27;;;;;;;66.80;34.60;;;-1.20;99.90;;;;;;6054847;23;20500;-69
2023/01/21 07:42:55;;;;;;;54.45;28.60;;;-1.20;99.90;;;;;;6064862;23;20032;-70
2023/01/21 07:45:23;;;;;;;67.10;30.00;;;-1.20;99.90;;;;;;6043380;23;20043;-70
2023/01/21 07:47:49;;;;;;;54.10;27.60;;;-1.20;99.90;;;;;;6069379;23;20053;-70
2023/01/21 07:50:16;;;;;;;65.60;29.85;;;-1.20;99.90;;;;;;6041902;23;20043;-70
2023/01/21 07:52:43;;;;;;;63.63;30.58;;;-1.20;99.90;;;;;;6081663;23;20055;-70
2023/01/21 07:55:09;;;;;;;61.95;30.15;;;-1.10;99.90;;;;;;6069059;23;20025;-70
2023/01/21 07:57:38;;;;;;;63.33;31.88;;;-1.10;99.90;;;;;;6059621;23;20032;-69
2023/01/21 08:00:05;;;;;;;70.20;34.78;;;-1.00;99.90;;;;;;6066743;23;20445;-70
2023/01/21 08:02:37;;;;;;;70.13;34.03;;;-0.90;99.90;;;;;;6067857;23;20206;-70
2023/01/21 08:05:06;;;;;;;58.88;27.90;;;-0.90;99.90;;;;;;6090502;23;20494;-70
2023/01/21 08:07:33;;;;;;;50.20;25.10;;;-1.00;99.90;;;;;;6086971;23;20373;-69
2023/01/21 08:09:59;;;;;;;51.95;23.95;;;-1.10;99.90;;;;;;6066597;23;20667;-69
2023/01/21 08:12:26;;;;;;;58.72;28.52;;;-1.10;99.90;;;;;;6065947;23;20667;-70
2023/01/21 08:14:53;;;;;;;52.38;25.75;;;-1.10;99.90;;;;;;6068948;23;20032;-70
2023/01/21 08:17:20;;;;;;;36.53;19.38;;;-1.00;99.90;;;;;;6062501;23;20037;-70
2023/01/21 08:19:46;;;;;;;38.80;20.70;;;-0.90;99.90;;;;;;6073437;23;20031;-69
2023/01/21 08:22:13;;;;;;;41.67;19.65;;;-0.90;99.90;;;;;;6070615;23;20038;-69
2023/01/21 08:24:40;;;;;;;35.90;18.80;;;-0.90;99.90;;;;;;6042932;23;20059;-69
2023/01/21 08:27:07;;;;;;;38.95;20.95;;;-0.90;99.90;;;;;;6059952;23;20497;-70
2023/01/21 08:29:33;;;;;;;33.50;18.90;;;-1.00;99.90;;;;;;6090662;23;20506;-70
2023/01/21 08:32:00;;;;;;;39.67;22.83;;;-0.80;99.90;;;;;;6054947;23;20477;-71
2023/01/21 08:34:27;;;;;;;45.30;23.42;;;-0.70;99.90;;;;;;6070322;23;20520;-69
2023/01/21 08:36:54;;;;;;;41.50;22.65;;;-0.70;99.90;;;;;;6067529;23;20132;-70
2023/01/21 08:39:21;;;;;;;42.97;22.05;;;-0.60;99.90;;;;;;6067896;23;20487;-70
2023/01/21 08:41:47;;;;;;;36.83;21.40;;;-0.60;99.90;;;;;;6055386;23;20063;-70
2023/01/21 08:44:14;;;;;;;35.78;21.45;;;-0.50;99.90;;;;;;6064169;23;20041;-70
2023/01/21 08:46:41;;;;;;;40.97;23.73;;;-0.40;99.90;;;;;;6071596;23;20511;-70
2023/01/21 08:49:08;;;;;;;43.15;23.90;;;-0.50;99.90;;;;;;6053047;23;20032;-70
2023/01/21 08:51:34;;;;;;;36.63;20.85;;;-0.50;99.90;;;;;;6044786;23;20088;-70
2023/01/21 08:54:05;;;;;;;34.25;20.88;;;-0.50;99.90;;;;;;6067209;23;20405;-70
2023/01/21 08:56:32;;;;;;;32.25;21.02;;;-0.60;99.90;;;;;;6067537;23;20028;-69
2023/01/21 08:58:59;;;;;;;32.33;20.92;;;-0.50;99.90;;;;;;6036043;23;20843;-69
2023/01/21 09:01:25;;;;;;;32.35;21.35;;;-0.50;99.90;;;;;;6081558;23;20028;-70
2023/01/21 09:03:56;;;;;;;35.00;21.35;;;-0.50;99.90;;;;;;6054773;23;20444;-69
2023/01/21 09:06:25;;;;;;;30.33;19.98;;;-0.60;99.90;;;;;;6072757;23;20500;-69
2023/01/21 09:08:52;;;;;;;28.83;21.15;;;-0.40;99.90;;;;;;6056458;23;20032;-69
2023/01/21 09:11:19;;;;;;;25.23;19.65;;;-0.40;99.90;;;;;;6061411;23;20123;-69
2023/01/21 09:13:46;;;;;;;26.17;19.98;;;-0.40;99.90;;;;;;6062505;23;20455;-69
2023/01/21 09:16:15;;;;;;;25.98;19.92;;;-0.50;99.90;;;;;;6069255;23;20060;-69
2023/01/21 09:18:42;;;;;;;25.25;20.10;;;-0.50;99.90;;;;;;6080453;23;20103;-69
2023/01/21 09:21:10;;;;;;;24.75;19.90;;;-0.40;99.90;;;;;;6061908;23;20036;-69
2023/01/21 09:23:38;;;;;;;25.10;19.73;;;-0.50;99.90;;;;;;6064250;23;20228;-69
2023/01/21 09:26:16;;;;;;;23.65;19.25;;;-0.50;99.90;;;;;;6047248;23;20028;-69
2023/01/21 09:28:45;;;;;;;19.13;17.08;;;-0.60;99.90;;;;;;6066035;23;20493;-69
2023/01/21 09:31:17;;;;;;;23.77;19.70;;;-0.50;99.90;;;;;;6061621;23;20028;-69
2023/01/21 09:33:46;;;;;;;26.67;21.00;;;-0.50;99.90;;;;;;6060669;23;20255;-69
2023/01/21 09:36:15;;;;;;;35.03;21.60;;;-0.50;99.90;;;;;;6067161;23;20038;-70
2023/01/21 09:38:43;;;;;;;30.67;20.83;;;-0.50;99.90;;;;;;5495263;22;20049;-69
2023/01/21 09:41:28;;;;;;;30.65;21.92;;;-0.40;99.90;;;;;;5067615;28;20035;-69
2023/01/21 09:44:10;;;;;;;27.45;21.08;;;-0.40;99.90;;;;;;5033370;28;20037;-69
2023/01/21 09:46:51;;;;;;;23.73;20.55;;;-0.40;99.90;;;;;;5055723;28;20036;-69
2023/01/21 09:49:24;;;;;;;32.42;22.67;;;-0.40;99.90;;;;;;5047028;28;20051;-69
2023/01/21 09:52:16;;;;;;;24.65;19.35;;;-0.30;99.90;;;;;;5067450;28;20043;-69
2023/01/21 09:54:43;;;;;;;24.13;20.52;;;-0.10;99.90;;;;;;5041485;28;20052;-69
2023/01/21 09:57:29;;;;;;;25.17;20.25;;;-0.10;99.90;;;;;;5073051;28;20032;-69
2023/01/21 10:00:04;;;;;;;22.45;20.10;;;-0.20;99.90;;;;;;5058862;28;20143;-71
2023/01/21 10:02:56;;;;;;;24.50;21.88;;;-0.30;99.90;;;;;;5058574;28;20590;-71
2023/01/21 10:05:44;;;;;;;26.45;20.52;;;-0.30;99.90;;;;;;5062577;28;20040;-71
2023/01/21 10:08:42;;;;;;;24.95;22.27;;;-0.20;99.90;;;;;;5051815;28;20048;-71
2023/01/21 10:11:43;;;;;;;27.38;21.90;;;-0.10;99.90;;;;;;5053074;28;20047;-72
2023/01/21 10:14:21;;;;;;;27.05;21.65;;;-0.10;99.90;;;;;;5062829;28;20089;-69
2023/01/21 10:16:47;;;;;;;27.98;21.10;;;0.00;99.90;;;;;;5064377;28;20068;-71
2023/01/21 10:19:20;;;;;;;21.92;19.58;;;-0.10;99.90;;;;;;5035447;28;20042;-71
2023/01/21 10:21:59;;;;;;;21.80;19.73;;;-0.20;99.90;;;;;;5060065;28;20072;-71
2023/01/21 10:24:37;;;;;;;22.20;20.13;;;-0.20;99.90;;;;;;5066193;28;20490;-71
2023/01/21 10:27:04;;;;;;;22.65;20.25;;;-0.30;99.90;;;;;;5053695;28;20069;-71
2023/01/21 10:29:34;;;;;;;19.70;17.98;;;-0.40;99.90;;;;;;5038892;28;20533;-69
2023/01/21 10:32:06;;;;;;;22.42;20.17;;;-0.50;99.90;;;;;;5061320;28;20047;-69
2023/01/21 10:34:39;;;;;;;37.03;30.17;;;-0.50;99.90;;;;;;5062547;28;20048;-69
2023/01/21 10:37:21;;;;;;;33.15;29.42;;;-0.40;99.90;;;;;;5041403;28;20040;-69
2023/01/21 10:39:57;;;;;;;23.88;20.88;;;-0.40;99.90;;;;;;5061027;28;20045;-71
2023/01/21 10:42:34;;;;;;;22.90;20.38;;;-0.40;99.90;;;;;;5038756;28;20044;-71
2023/01/21 10:45:30;;;;;;;26.80;24.08;;;-0.30;99.90;;;;;;5051327;28;20044;-71
2023/01/21 10:48:23;;;;;;;24.10;21.95;;;-0.20;99.90;;;;;;5063784;28;20048;-68
2023/01/21 10:51:06;;;;;;;28.30;25.65;;;-0.20;99.90;;;;;;5042963;28;20036;-71
2023/01/21 10:53:37;;;;;;;20.83;18.98;;;-0.20;99.90;;;;;;5049958;28;21738;-71
2023/01/21 10:56:16;;;;;;;22.38;20.42;;;-0.30;99.90;;;;;;5045588;28;20419;-70
2023/01/21 10:59:05;;;;;;;20.30;18.60;;;-0.40;99.90;;;;;;5064918;28;20058;-70
2023/01/21 11:01:36;;;;;;;20.33;18.75;;;-0.60;99.90;;;;;;5052622;28;20065;-71
2023/01/21 11:04:10;;;;;;;21.10;19.10;;;-0.60;99.90;;;;;;5057053;28;20082;-71
2023/01/21 11:06:38;;;;;;;23.52;21.02;;;-0.60;99.90;;;;;;5065209;28;20040;-70
2023/01/21 11:09:09;;;;;;;23.65;21.35;;;-0.50;99.90;;;;;;5040787;28;20067;-71
2023/01/21 11:11:39;;;;;;;20.70;19.08;;;-0.30;99.90;;;;;;5057363;28;20033;-71
2023/01/21 11:14:05;;;;;;;21.80;19.92;;;-0.30;99.90;;;;;;5035808;28;20044;-71
2023/01/21 11:16:44;;;;;;;26.80;24.33;;;-0.40;99.90;;;;;;5064241;28;20048;-70
2023/01/21 11:19:31;;;;;;;29.88;26.85;;;-0.50;99.90;;;;;;5063094;28;20155;-70
2023/01/21 11:22:16;;;;;;;21.63;19.90;;;-0.40;99.90;;;;;;5065884;28;20112;-71
2023/01/21 11:24:45;;;;;;;22.63;20.83;;;-0.10;99.90;;;;;;5044630;28;20049;-71
2023/01/21 11:27:41;;;;;;;22.35;20.75;;;0.00;99.90;;;;;;5070611;28;20043;-71
2023/01/21 11:30:28;;;;;;;24.15;22.20;;;0.00;99.90;;;;;;5044147;28;20355;-70
2023/01/21 11:33:25;;;;;;;22.25;20.70;;;0.00;99.90;;;;;;5058841;28;20040;-68
2023/01/21 11:35:53;;;;;;;23.33;21.65;;;0.00;99.90;;;;;;5065911;28;20046;-70
2023/01/21 11:38:34;;;;;;;25.45;23.15;;;0.00;99.90;;;;;;5068555;28;20094;-70
2023/01/21 11:41:04;;;;;;;25.38;23.30;;;0.10;99.90;;;;;;5047691;28;20047;-70
2023/01/21 11:43:43;;;;;;;27.30;25.08;;;0.30;99.90;;;;;;5064513;28;20048;-70
2023/01/21 11:46:35;;;;;;;26.90;24.33;;;0.40;99.90;;;;;;5065711;28;20045;-70
2023/01/21 11:49:07;;;;;;;26.23;24.05;;;0.60;99.90;;;;;;5072480;28;20043;-70
2023/01/21 11:51:36;;;;;;;27.10;24.80;;;0.70;99.90;;;;;;5066836;28;21347;-70
2023/01/21 11:54:23;;;;;;;27.08;24.48;;;0.70;99.90;;;;;;5068301;28;20040;-71
2023/01/21 11:56:58;;;;;;;28.08;25.52;;;0.60;99.90;;;;;;5066526;28;20056;-71
2023/01/21 11:59:30;;;;;;;27.67;25.05;;;0.50;99.90;;;;;;5067028;28;20049;-71
2023/01/21 12:02:42;;;;;;;28.63;26.13;;;0.40;99.90;;;;;;5070312;28;21209;-69
2023/01/21 12:05:24;;;;;;;26.30;23.95;;;0.30;99.90;;;;;;5057108;28;20044;-69
2023/01/21 12:07:51;;;;;;;27.48;24.95;;;0.40;99.90;;;;;;5064196;28;20120;-69
2023/01/21 12:10:42;;;;;;;26.40;23.73;;;0.50;99.90;;;;;;5067262;28;20588;-71
2023/01/21 12:13:49;;;;;;;27.35;24.73;;;0.50;99.90;;;;;;5062066;28;20046;-71
2023/01/21 12:16:39;;;;;;;26.08;23.38;;;0.50;99.90;;;;;;5062631;28;20032;-69
2023/01/21 12:19:24;;;;;;;28.65;25.92;;;0.60;99.90;;;;;;5041313;28;20048;-71
2023/01/21 12:22:16;;;;;;;28.17;25.45;;;0.60;99.90;;;;;;5044114;28;20045;-71
2023/01/21 12:24:51;;;;;;;71.53;27.33;;;0.70;99.90;;;;;;5047229;28;20049;-69
2023/01/21 12:27:30;;;;;;;27.27;24.40;;;0.70;99.90;;;;;;5055339;28;20038;-70
2023/01/21 12:30:17;;;;;;;28.00;25.27;;;0.70;99.90;;;;;;5069744;28;20037;-69
2023/01/21 12:32:55;;;;;;;28.45;25.65;;;0.80;99.90;;;;;;5069074;28;20201;-69
2023/01/21 12:35:54;;;;;;;28.10;25.33;;;0.70;99.90;;;;;;5061365;28;20052;-70
2023/01/21 12:38:31;;;;;;;29.65;26.73;;;0.70;99.90;;;;;;5044266;28;20032;-69
2023/01/21 12:41:26;;;;;;;28.95;26.25;;;0.70;99.90;;;;;;5064820;28;20453;-69
2023/01/21 12:44:23;;;;;;;27.77;25.27;;;0.70;99.90;;;;;;5072543;28;20067;-69
2023/01/21 12:46:53;;;;;;;30.88;27.60;;;0.70;99.90;;;;;;5018953;28;20463;-69
2023/01/21 12:49:47;;;;;;;29.40;26.52;;;0.70;99.90;;;;;;5068947;28;20059;-69
2023/01/21 12:52:21;;;;;;;29.33;26.63;;;0.90;99.90;;;;;;5066306;28;20072;-70
2023/01/21 12:55:20;;;;;;;29.30;26.80;;;0.80;99.90;;;;;;5062527;28;20059;-70
2023/01/21 12:58:01;;;;;;;27.85;25.33;;;0.70;99.90;;;;;;5051746;28;20522;-69